sensor_id;sensor_type;location;lat;lon;timestamp;P1;durP1;ratioP1;P2;durP2;ratioP2
42770;SDS011;28426;42.872;25.314;2022-11-20T00:00:03;11.05;;;4.57;;
42770;SDS011;28426;42.872;25.314;2022-11-20T00:02:36;15.05;;;4.75;;
42770;SDS011;28426;42.872;25.314;2022-11-20T00:05:08;15.32;;;6.28;;
42770;SDS011;28426;42.872;25.314;2022-11-20T00:07:38;15.20;;;4.55;;
42770;SDS011;28426;42.872;25.314;2022-11-20T00:10:09;13.70;;;5.05;;
42770;SDS011;28426;42.872;25.314;2022-11-20T00:12:40;15.15;;;4.57;;
42770;SDS011;28426;42.872;25.314;2022-11-20T00:15:10;17.48;;;4.18;;
42770;SDS011;28426;42.872;25.314;2022-11-20T00:17:43;12.85;;;3.95;;
42770;SDS011;28426;42.872;25.314;2022-11-20T00:20:14;16.40;;;4.95;;
42770;SDS011;28426;42.872;25.314;2022-11-20T00:22:44;14.88;;;4.55;;
42770;SDS011;28426;42.872;25.314;2022-11-20T00:25:15;16.52;;;5.25;;
42770;SDS011;28426;42.872;25.314;2022-11-20T00:27:46;18.30;;;4.55;;
42770;SDS011;28426;42.872;25.314;2022-11-20T00:30:17;18.33;;;4.50;;
42770;SDS011;28426;42.872;25.314;2022-11-20T00:32:50;14.40;;;4.03;;
42770;SDS011;28426;42.872;25.314;2022-11-20T00:35:21;17.35;;;4.60;;
42770;SDS011;28426;42.872;25.314;2022-11-20T00:37:52;14.23;;;4.72;;
42770;SDS011;28426;42.872;25.314;2022-11-20T00:40:22;16.58;;;4.78;;
42770;SDS011;28426;42.872;25.314;2022-11-20T00:42:53;13.75;;;4.20;;
42770;SDS011;28426;42.872;25.314;2022-11-20T00:45:23;16.17;;;4.38;;
42770;SDS011;28426;42.872;25.314;2022-11-20T00:47:57;16.10;;;3.92;;
42770;SDS011;28426;42.872;25.314;2022-11-20T00:50:27;13.75;;;3.92;;
42770;SDS011;28426;42.872;25.314;2022-11-20T00:52:58;13.57;;;3.95;;
42770;SDS011;28426;42.872;25.314;2022-11-20T00:55:28;15.63;;;4.03;;
42770;SDS011;28426;42.872;25.314;2022-11-20T00:57:59;15.10;;;3.58;;
42770;SDS011;28426;42.872;25.314;2022-11-20T01:00:30;12.98;;;3.65;;
42770;SDS011;28426;42.872;25.314;2022-11-20T01:03:03;12.60;;;3.17;;
42770;SDS011;28426;42.872;25.314;2022-11-20T01:05:34;14.05;;;3.88;;
42770;SDS011;28426;42.872;25.314;2022-11-20T01:08:05;17.20;;;4.47;;
42770;SDS011;28426;42.872;25.314;2022-11-20T01:10:36;15.02;;;3.35;;
42770;SDS011;28426;42.872;25.314;2022-11-20T01:13:07;16.75;;;4.10;;
42770;SDS011;28426;42.872;25.314;2022-11-20T01:15:51;14.38;;;3.60;;
42770;SDS011;28426;42.872;25.314;2022-11-20T01:18:24;10.38;;;3.35;;
42770;SDS011;28426;42.872;25.314;2022-11-20T01:20:55;14.50;;;3.55;;
42770;SDS011;28426;42.872;25.314;2022-11-20T01:23:32;11.60;;;3.58;;
42770;SDS011;28426;42.872;25.314;2022-11-20T01:26:05;13.63;;;3.75;;
42770;SDS011;28426;42.872;25.314;2022-11-20T01:28:39;14.98;;;3.55;;
42770;SDS011;28426;42.872;25.314;2022-11-20T01:31:10;13.07;;;3.88;;
42770;SDS011;28426;42.872;25.314;2022-11-20T01:33:45;12.90;;;3.50;;
42770;SDS011;28426;42.872;25.314;2022-11-20T01:36:19;11.40;;;3.72;;
42770;SDS011;28426;42.872;25.314;2022-11-20T01:38:51;10.55;;;3.00;;
42770;SDS011;28426;42.872;25.314;2022-11-20T01:41:22;12.60;;;3.47;;
42770;SDS011;28426;42.872;25.314;2022-11-20T01:44:06;14.57;;;3.45;;
42770;SDS011;28426;42.872;25.314;2022-11-20T01:46:37;14.32;;;3.38;;
42770;SDS011;28426;42.872;25.314;2022-11-20T01:49:15;17.85;;;3.85;;
42770;SDS011;28426;42.872;25.314;2022-11-20T01:51:50;14.38;;;3.17;;
42770;SDS011;28426;42.872;25.314;2022-11-20T01:54:24;12.10;;;3.25;;
42770;SDS011;28426;42.872;25.314;2022-11-20T01:56:59;13.50;;;3.80;;
42770;SDS011;28426;42.872;25.314;2022-11-20T01:59:31;14.27;;;3.50;;
42770;SDS011;28426;42.872;25.314;2022-11-20T02:02:03;17.80;;;4.10;;
42770;SDS011;28426;42.872;25.314;2022-11-20T02:04:36;13.80;;;4.07;;
42770;SDS011;28426;42.872;25.314;2022-11-20T02:07:07;15.82;;;3.83;;
42770;SDS011;28426;42.872;25.314;2022-11-20T02:09:38;16.33;;;4.05;;
42770;SDS011;28426;42.872;25.314;2022-11-20T02:12:09;15.93;;;3.45;;
42770;SDS011;28426;42.872;25.314;2022-11-20T02:15:20;12.10;;;3.47;;
42770;SDS011;28426;42.872;25.314;2022-11-20T02:17:54;10.40;;;3.03;;
42770;SDS011;28426;42.872;25.314;2022-11-20T02:20:28;15.32;;;4.05;;
42770;SDS011;28426;42.872;25.314;2022-11-20T02:22:59;11.27;;;3.08;;
42770;SDS011;28426;42.872;25.314;2022-11-20T02:25:37;16.98;;;4.15;;
42770;SDS011;28426;42.872;25.314;2022-11-20T02:28:09;12.43;;;3.80;;
42770;SDS011;28426;42.872;25.314;2022-11-20T02:30:40;10.68;;;3.38;;
42770;SDS011;28426;42.872;25.314;2022-11-20T02:33:10;16.55;;;3.92;;
42770;SDS011;28426;42.872;25.314;2022-11-20T02:35:43;15.15;;;3.50;;
42770;SDS011;28426;42.872;25.314;2022-11-20T02:38:15;13.13;;;3.30;;
42770;SDS011;28426;42.872;25.314;2022-11-20T02:40:49;15.02;;;3.28;;
42770;SDS011;28426;42.872;25.314;2022-11-20T02:43:21;13.90;;;3.92;;
42770;SDS011;28426;42.872;25.314;2022-11-20T02:45:52;12.75;;;3.25;;
42770;SDS011;28426;42.872;25.314;2022-11-20T02:48:23;13.18;;;3.38;;
42770;SDS011;28426;42.872;25.314;2022-11-20T02:50:59;11.82;;;3.40;;
42770;SDS011;28426;42.872;25.314;2022-11-20T02:53:30;16.20;;;3.47;;
42770;SDS011;28426;42.872;25.314;2022-11-20T02:56:04;13.02;;;3.33;;
42770;SDS011;28426;42.872;25.314;2022-11-20T02:58:35;15.07;;;3.30;;
42770;SDS011;28426;42.872;25.314;2022-11-20T03:01:05;10.25;;;2.95;;
42770;SDS011;28426;42.872;25.314;2022-11-20T03:03:36;11.80;;;3.58;;
42770;SDS011;28426;42.872;25.314;2022-11-20T03:06:07;17.17;;;4.38;;
42770;SDS011;28426;42.872;25.314;2022-11-20T03:08:38;11.00;;;2.95;;
42770;SDS011;28426;42.872;25.314;2022-11-20T03:11:11;13.27;;;2.90;;
42770;SDS011;28426;42.872;25.314;2022-11-20T03:13:41;12.38;;;3.17;;
42770;SDS011;28426;42.872;25.314;2022-11-20T03:16:13;11.75;;;2.70;;
42770;SDS011;28426;42.872;25.314;2022-11-20T03:18:45;16.13;;;3.88;;
42770;SDS011;28426;42.872;25.314;2022-11-20T03:21:16;12.93;;;3.15;;
42770;SDS011;28426;42.872;25.314;2022-11-20T03:23:47;11.30;;;3.13;;
42770;SDS011;28426;42.872;25.314;2022-11-20T03:26:21;10.93;;;2.72;;
42770;SDS011;28426;42.872;25.314;2022-11-20T03:28:54;10.93;;;2.38;;
42770;SDS011;28426;42.872;25.314;2022-11-20T03:31:27;14.63;;;3.47;;
42770;SDS011;28426;42.872;25.314;2022-11-20T03:33:59;15.82;;;2.80;;
42770;SDS011;28426;42.872;25.314;2022-11-20T03:36:30;15.65;;;2.88;;
42770;SDS011;28426;42.872;25.314;2022-11-20T03:39:02;11.68;;;2.80;;
42770;SDS011;28426;42.872;25.314;2022-11-20T03:41:38;11.82;;;2.80;;
42770;SDS011;28426;42.872;25.314;2022-11-20T03:44:11;12.45;;;2.88;;
42770;SDS011;28426;42.872;25.314;2022-11-20T03:46:42;10.25;;;2.55;;
42770;SDS011;28426;42.872;25.314;2022-11-20T03:49:12;9.05;;;2.65;;
42770;SDS011;28426;42.872;25.314;2022-11-20T03:51:43;11.90;;;2.92;;
42770;SDS011;28426;42.872;25.314;2022-11-20T03:54:14;8.57;;;2.80;;
42770;SDS011;28426;42.872;25.314;2022-11-20T03:56:47;13.38;;;3.15;;
42770;SDS011;28426;42.872;25.314;2022-11-20T03:59:18;15.45;;;2.97;;
42770;SDS011;28426;42.872;25.314;2022-11-20T04:01:49;12.18;;;2.72;;
42770;SDS011;28426;42.872;25.314;2022-11-20T04:04:19;10.75;;;2.30;;
42770;SDS011;28426;42.872;25.314;2022-11-20T04:06:50;10.68;;;2.60;;
42770;SDS011;28426;42.872;25.314;2022-11-20T04:09:20;14.02;;;2.60;;
42770;SDS011;28426;42.872;25.314;2022-11-20T04:11:54;18.05;;;3.50;;
42770;SDS011;28426;42.872;25.314;2022-11-20T04:14:24;12.93;;;2.78;;
42770;SDS011;28426;42.872;25.314;2022-11-20T04:16:55;11.15;;;2.50;;
42770;SDS011;28426;42.872;25.314;2022-11-20T04:19:25;13.75;;;3.05;;
42770;SDS011;28426;42.872;25.314;2022-11-20T04:21:56;8.02;;;2.72;;
42770;SDS011;28426;42.872;25.314;2022-11-20T04:24:26;13.27;;;2.92;;
42770;SDS011;28426;42.872;25.314;2022-11-20T04:27:00;11.85;;;2.60;;
42770;SDS011;28426;42.872;25.314;2022-11-20T04:29:30;10.98;;;2.72;;
42770;SDS011;28426;42.872;25.314;2022-11-20T04:32:01;20.35;;;5.85;;
42770;SDS011;28426;42.872;25.314;2022-11-20T04:34:31;14.88;;;5.80;;
42770;SDS011;28426;42.872;25.314;2022-11-20T04:37:02;22.05;;;10.75;;
42770;SDS011;28426;42.872;25.314;2022-11-20T04:39:33;15.45;;;6.72;;
42770;SDS011;28426;42.872;25.314;2022-11-20T04:42:07;12.32;;;4.60;;
42770;SDS011;28426;42.872;25.314;2022-11-20T04:44:51;24.40;;;4.88;;
42770;SDS011;28426;42.872;25.314;2022-11-20T04:47:22;12.50;;;3.10;;
42770;SDS011;28426;42.872;25.314;2022-11-20T04:49:53;10.07;;;2.80;;
42770;SDS011;28426;42.872;25.314;2022-11-20T04:52:24;10.13;;;3.90;;
42770;SDS011;28426;42.872;25.314;2022-11-20T04:54:54;9.57;;;2.38;;
42770;SDS011;28426;42.872;25.314;2022-11-20T04:57:28;10.77;;;2.30;;
42770;SDS011;28426;42.872;25.314;2022-11-20T04:59:58;11.45;;;3.08;;
42770;SDS011;28426;42.872;25.314;2022-11-20T05:02:30;13.80;;;3.13;;
42770;SDS011;28426;42.872;25.314;2022-11-20T05:05:01;9.30;;;2.50;;
42770;SDS011;28426;42.872;25.314;2022-11-20T05:07:31;13.77;;;3.13;;
42770;SDS011;28426;42.872;25.314;2022-11-20T05:10:02;8.50;;;2.75;;
42770;SDS011;28426;42.872;25.314;2022-11-20T05:12:36;7.65;;;2.65;;
42770;SDS011;28426;42.872;25.314;2022-11-20T05:15:07;9.95;;;2.53;;
42770;SDS011;28426;42.872;25.314;2022-11-20T05:17:38;15.45;;;2.63;;
42770;SDS011;28426;42.872;25.314;2022-11-20T05:20:09;9.68;;;2.22;;
42770;SDS011;28426;42.872;25.314;2022-11-20T05:22:41;14.93;;;2.25;;
42770;SDS011;28426;42.872;25.314;2022-11-20T05:25:11;10.27;;;2.47;;
42770;SDS011;28426;42.872;25.314;2022-11-20T05:27:45;10.00;;;2.22;;
42770;SDS011;28426;42.872;25.314;2022-11-20T05:30:15;10.95;;;2.60;;
42770;SDS011;28426;42.872;25.314;2022-11-20T05:32:46;12.48;;;2.58;;
42770;SDS011;28426;42.872;25.314;2022-11-20T05:35:16;9.88;;;1.90;;
42770;SDS011;28426;42.872;25.314;2022-11-20T05:37:47;11.80;;;2.70;;
42770;SDS011;28426;42.872;25.314;2022-11-20T05:40:18;10.98;;;2.40;;
42770;SDS011;28426;42.872;25.314;2022-11-20T05:42:51;9.63;;;2.40;;
42770;SDS011;28426;42.872;25.314;2022-11-20T05:45:21;11.23;;;1.90;;
42770;SDS011;28426;42.872;25.314;2022-11-20T05:47:52;9.45;;;2.35;;
42770;SDS011;28426;42.872;25.314;2022-11-20T05:50:23;9.90;;;2.58;;
42770;SDS011;28426;42.872;25.314;2022-11-20T05:52:53;10.50;;;2.25;;
42770;SDS011;28426;42.872;25.314;2022-11-20T05:55:24;8.55;;;1.88;;
42770;SDS011;28426;42.872;25.314;2022-11-20T05:57:57;8.40;;;2.15;;
42770;SDS011;28426;42.872;25.314;2022-11-20T06:00:28;9.25;;;2.20;;
42770;SDS011;28426;42.872;25.314;2022-11-20T06:02:58;11.07;;;2.08;;
42770;SDS011;28426;42.872;25.314;2022-11-20T06:05:29;9.70;;;1.92;;
42770;SDS011;28426;42.872;25.314;2022-11-20T06:08:00;11.88;;;2.40;;
42770;SDS011;28426;42.872;25.314;2022-11-20T06:10:31;9.48;;;2.08;;
42770;SDS011;28426;42.872;25.314;2022-11-20T06:13:04;9.32;;;2.20;;
42770;SDS011;28426;42.872;25.314;2022-11-20T06:15:35;8.27;;;2.10;;
42770;SDS011;28426;42.872;25.314;2022-11-20T06:18:05;10.77;;;2.05;;
42770;SDS011;28426;42.872;25.314;2022-11-20T06:20:36;9.88;;;2.08;;
42770;SDS011;28426;42.872;25.314;2022-11-20T06:23:08;14.05;;;2.63;;
42770;SDS011;28426;42.872;25.314;2022-11-20T06:25:38;9.18;;;2.35;;
42770;SDS011;28426;42.872;25.314;2022-11-20T06:28:12;8.95;;;2.00;;
42770;SDS011;28426;42.872;25.314;2022-11-20T06:30:44;8.07;;;2.45;;
42770;SDS011;28426;42.872;25.314;2022-11-20T06:33:15;12.57;;;2.70;;
42770;SDS011;28426;42.872;25.314;2022-11-20T06:35:46;8.13;;;2.10;;
42770;SDS011;28426;42.872;25.314;2022-11-20T06:38:22;12.52;;;2.28;;
42770;SDS011;28426;42.872;25.314;2022-11-20T06:40:53;10.25;;;2.88;;
42770;SDS011;28426;42.872;25.314;2022-11-20T06:43:28;7.55;;;2.33;;
42770;SDS011;28426;42.872;25.314;2022-11-20T06:45:59;13.30;;;3.13;;
42770;SDS011;28426;42.872;25.314;2022-11-20T06:48:30;12.02;;;2.22;;
42770;SDS011;28426;42.872;25.314;2022-11-20T06:51:02;10.50;;;2.80;;
42770;SDS011;28426;42.872;25.314;2022-11-20T06:53:33;8.05;;;2.15;;
42770;SDS011;28426;42.872;25.314;2022-11-20T06:56:04;7.97;;;2.17;;
42770;SDS011;28426;42.872;25.314;2022-11-20T06:58:39;9.07;;;2.00;;
42770;SDS011;28426;42.872;25.314;2022-11-20T07:01:10;13.00;;;2.45;;
42770;SDS011;28426;42.872;25.314;2022-11-20T07:03:42;9.15;;;2.20;;
42770;SDS011;28426;42.872;25.314;2022-11-20T07:06:19;12.30;;;2.70;;
42770;SDS011;28426;42.872;25.314;2022-11-20T07:08:50;6.82;;;1.85;;
42770;SDS011;28426;42.872;25.314;2022-11-20T07:11:21;9.18;;;2.13;;
42770;SDS011;28426;42.872;25.314;2022-11-20T07:13:56;11.43;;;2.53;;
42770;SDS011;28426;42.872;25.314;2022-11-20T07:16:26;9.05;;;1.75;;
42770;SDS011;28426;42.872;25.314;2022-11-20T07:18:57;10.02;;;2.55;;
42770;SDS011;28426;42.872;25.314;2022-11-20T07:21:28;9.18;;;2.00;;
42770;SDS011;28426;42.872;25.314;2022-11-20T07:23:58;6.82;;;1.90;;
42770;SDS011;28426;42.872;25.314;2022-11-20T07:26:29;10.13;;;1.95;;
42770;SDS011;28426;42.872;25.314;2022-11-20T07:29:02;11.30;;;2.15;;
42770;SDS011;28426;42.872;25.314;2022-11-20T07:31:33;9.85;;;1.80;;
42770;SDS011;28426;42.872;25.314;2022-11-20T07:34:03;7.63;;;2.55;;
42770;SDS011;28426;42.872;25.314;2022-11-20T07:36:34;13.88;;;2.40;;
42770;SDS011;28426;42.872;25.314;2022-11-20T07:39:05;7.78;;;2.13;;
42770;SDS011;28426;42.872;25.314;2022-11-20T07:41:35;12.40;;;2.83;;
42770;SDS011;28426;42.872;25.314;2022-11-20T07:44:08;5.90;;;1.90;;
42770;SDS011;28426;42.872;25.314;2022-11-20T07:46:39;8.85;;;1.83;;
42770;SDS011;28426;42.872;25.314;2022-11-20T07:49:10;8.60;;;2.60;;
42770;SDS011;28426;42.872;25.314;2022-11-20T07:51:40;10.95;;;3.50;;
42770;SDS011;28426;42.872;25.314;2022-11-20T07:54:16;6.38;;;3.13;;
42770;SDS011;28426;42.872;25.314;2022-11-20T07:56:46;6.90;;;3.00;;
42770;SDS011;28426;42.872;25.314;2022-11-20T07:59:20;6.38;;;3.60;;
42770;SDS011;28426;42.872;25.314;2022-11-20T08:01:50;6.53;;;3.50;;
42770;SDS011;28426;42.872;25.314;2022-11-20T08:04:21;6.55;;;3.58;;
42770;SDS011;28426;42.872;25.314;2022-11-20T08:06:52;9.40;;;4.43;;
42770;SDS011;28426;42.872;25.314;2022-11-20T08:09:23;8.50;;;4.85;;
42770;SDS011;28426;42.872;25.314;2022-11-20T08:11:54;8.35;;;4.28;;
42770;SDS011;28426;42.872;25.314;2022-11-20T08:14:39;6.72;;;4.95;;
42770;SDS011;28426;42.872;25.314;2022-11-20T08:17:09;8.18;;;5.22;;
42770;SDS011;28426;42.872;25.314;2022-11-20T08:19:40;9.52;;;5.32;;
42770;SDS011;28426;42.872;25.314;2022-11-20T08:22:10;12.25;;;5.43;;
42770;SDS011;28426;42.872;25.314;2022-11-20T08:24:41;7.90;;;5.15;;
42770;SDS011;28426;42.872;25.314;2022-11-20T08:27:12;8.98;;;5.40;;
42770;SDS011;28426;42.872;25.314;2022-11-20T08:29:45;8.15;;;5.32;;
42770;SDS011;28426;42.872;25.314;2022-11-20T08:32:15;8.93;;;6.10;;
42770;SDS011;28426;42.872;25.314;2022-11-20T08:34:46;9.88;;;5.85;;
42770;SDS011;28426;42.872;25.314;2022-11-20T08:37:16;10.98;;;5.97;;
42770;SDS011;28426;42.872;25.314;2022-11-20T08:39:47;10.10;;;5.78;;
42770;SDS011;28426;42.872;25.314;2022-11-20T08:42:18;10.98;;;6.00;;
42770;SDS011;28426;42.872;25.314;2022-11-20T08:44:51;11.25;;;6.97;;
42770;SDS011;28426;42.872;25.314;2022-11-20T08:47:21;10.10;;;6.25;;
42770;SDS011;28426;42.872;25.314;2022-11-20T08:49:52;12.98;;;7.63;;
42770;SDS011;28426;42.872;25.314;2022-11-20T08:52:22;11.25;;;7.78;;
42770;SDS011;28426;42.872;25.314;2022-11-20T08:54:53;11.18;;;7.20;;
42770;SDS011;28426;42.872;25.314;2022-11-20T08:57:23;12.23;;;7.68;;
42770;SDS011;28426;42.872;25.314;2022-11-20T08:59:56;11.35;;;7.70;;
42770;SDS011;28426;42.872;25.314;2022-11-20T09:02:32;10.35;;;7.68;;
42770;SDS011;28426;42.872;25.314;2022-11-20T09:05:03;10.27;;;7.50;;
42770;SDS011;28426;42.872;25.314;2022-11-20T09:07:34;14.70;;;7.97;;
42770;SDS011;28426;42.872;25.314;2022-11-20T09:10:05;10.77;;;7.40;;
42770;SDS011;28426;42.872;25.314;2022-11-20T09:12:57;9.55;;;7.28;;
42770;SDS011;28426;42.872;25.314;2022-11-20T09:15:31;12.15;;;8.18;;
42770;SDS011;28426;42.872;25.314;2022-11-20T09:18:02;14.02;;;8.70;;
42770;SDS011;28426;42.872;25.314;2022-11-20T09:20:33;12.05;;;8.50;;
42770;SDS011;28426;42.872;25.314;2022-11-20T09:23:04;16.52;;;9.70;;
42770;SDS011;28426;42.872;25.314;2022-11-20T09:25:34;13.77;;;9.07;;
42770;SDS011;28426;42.872;25.314;2022-11-20T09:28:05;13.43;;;8.80;;
42770;SDS011;28426;42.872;25.314;2022-11-20T09:30:38;12.63;;;8.50;;
42770;SDS011;28426;42.872;25.314;2022-11-20T09:33:08;12.15;;;9.13;;
42770;SDS011;28426;42.872;25.314;2022-11-20T09:35:39;12.40;;;9.00;;
42770;SDS011;28426;42.872;25.314;2022-11-20T09:38:10;13.50;;;9.25;;
42770;SDS011;28426;42.872;25.314;2022-11-20T09:40:44;15.57;;;9.77;;
42770;SDS011;28426;42.872;25.314;2022-11-20T09:43:21;21.00;;;10.93;;
42770;SDS011;28426;42.872;25.314;2022-11-20T09:46:11;13.27;;;9.68;;
42770;SDS011;28426;42.872;25.314;2022-11-20T09:48:57;17.02;;;11.25;;
42770;SDS011;28426;42.872;25.314;2022-11-20T09:51:40;16.10;;;10.05;;
42770;SDS011;28426;42.872;25.314;2022-11-20T09:54:22;14.93;;;10.02;;
42770;SDS011;28426;42.872;25.314;2022-11-20T09:56:56;14.05;;;9.73;;
42770;SDS011;28426;42.872;25.314;2022-11-20T09:59:33;12.68;;;9.15;;
42770;SDS011;28426;42.872;25.314;2022-11-20T10:02:16;12.70;;;8.95;;
42770;SDS011;28426;42.872;25.314;2022-11-20T10:04:58;11.95;;;8.93;;
42770;SDS011;28426;42.872;25.314;2022-11-20T10:07:36;17.88;;;9.73;;
42770;SDS011;28426;42.872;25.314;2022-11-20T10:10:16;15.20;;;9.57;;
42770;SDS011;28426;42.872;25.314;2022-11-20T10:12:55;11.88;;;8.10;;
42770;SDS011;28426;42.872;25.314;2022-11-20T10:15:37;14.35;;;8.25;;
42770;SDS011;28426;42.872;25.314;2022-11-20T10:18:21;12.85;;;7.47;;
42770;SDS011;28426;42.872;25.314;2022-11-20T10:21:03;13.70;;;7.78;;
42770;SDS011;28426;42.872;25.314;2022-11-20T10:23:50;12.05;;;7.75;;
42770;SDS011;28426;42.872;25.314;2022-11-20T10:26:38;11.23;;;7.60;;
42770;SDS011;28426;42.872;25.314;2022-11-20T10:29:18;11.63;;;7.65;;
42770;SDS011;28426;42.872;25.314;2022-11-20T10:31:54;14.02;;;7.68;;
42770;SDS011;28426;42.872;25.314;2022-11-20T10:37:09;11.95;;;7.95;;
42770;SDS011;28426;42.872;25.314;2022-11-20T10:39:47;12.02;;;7.15;;
42770;SDS011;28426;42.872;25.314;2022-11-20T10:42:26;10.98;;;7.10;;
42770;SDS011;28426;42.872;25.314;2022-11-20T10:45:11;12.35;;;7.40;;
42770;SDS011;28426;42.872;25.314;2022-11-20T10:48:07;11.75;;;8.80;;
42770;SDS011;28426;42.872;25.314;2022-11-20T10:53:54;15.70;;;9.63;;
42770;SDS011;28426;42.872;25.314;2022-11-20T10:56:38;15.85;;;9.63;;
42770;SDS011;28426;42.872;25.314;2022-11-20T10:59:32;13.52;;;8.43;;
42770;SDS011;28426;42.872;25.314;2022-11-20T11:02:17;13.20;;;8.80;;
42770;SDS011;28426;42.872;25.314;2022-11-20T11:04:50;12.95;;;8.52;;
42770;SDS011;28426;42.872;25.314;2022-11-20T11:07:24;11.88;;;8.43;;
42770;SDS011;28426;42.872;25.314;2022-11-20T11:10:00;11.35;;;8.07;;
42770;SDS011;28426;42.872;25.314;2022-11-20T11:12:31;15.18;;;8.40;;
42770;SDS011;28426;42.872;25.314;2022-11-20T11:15:01;10.75;;;7.80;;
42770;SDS011;28426;42.872;25.314;2022-11-20T11:17:33;13.73;;;8.38;;
42770;SDS011;28426;42.872;25.314;2022-11-20T11:20:14;12.60;;;8.30;;
42770;SDS011;28426;42.872;25.314;2022-11-20T11:22:50;12.52;;;8.43;;
42770;SDS011;28426;42.872;25.314;2022-11-20T11:25:23;12.02;;;8.20;;
42770;SDS011;28426;42.872;25.314;2022-11-20T11:27:57;13.98;;;8.15;;
42770;SDS011;28426;42.872;25.314;2022-11-20T11:30:30;13.20;;;9.00;;
42770;SDS011;28426;42.872;25.314;2022-11-20T11:33:17;11.50;;;8.25;;
42770;SDS011;28426;42.872;25.314;2022-11-20T11:35:50;12.80;;;8.10;;
42770;SDS011;28426;42.872;25.314;2022-11-20T11:38:30;13.25;;;9.27;;
42770;SDS011;28426;42.872;25.314;2022-11-20T11:41:06;13.32;;;8.07;;
42770;SDS011;28426;42.872;25.314;2022-11-20T11:43:40;21.08;;;9.52;;
42770;SDS011;28426;42.872;25.314;2022-11-20T11:46:34;14.40;;;9.65;;
42770;SDS011;28426;42.872;25.314;2022-11-20T11:49:15;14.35;;;9.48;;
42770;SDS011;28426;42.872;25.314;2022-11-20T11:51:54;13.35;;;8.73;;
42770;SDS011;28426;42.872;25.314;2022-11-20T11:54:34;13.15;;;8.90;;
42770;SDS011;28426;42.872;25.314;2022-11-20T11:57:10;12.60;;;9.18;;
42770;SDS011;28426;42.872;25.314;2022-11-20T11:59:46;18.90;;;9.70;;
42770;SDS011;28426;42.872;25.314;2022-11-20T12:02:35;14.80;;;9.50;;
42770;SDS011;28426;42.872;25.314;2022-11-20T12:05:15;13.93;;;9.13;;
42770;SDS011;28426;42.872;25.314;2022-11-20T12:07:49;14.13;;;9.30;;
42770;SDS011;28426;42.872;25.314;2022-11-20T12:10:33;13.68;;;8.93;;
42770;SDS011;28426;42.872;25.314;2022-11-20T12:13:15;13.05;;;9.30;;
42770;SDS011;28426;42.872;25.314;2022-11-20T12:15:56;13.07;;;9.30;;
42770;SDS011;28426;42.872;25.314;2022-11-20T12:18:27;13.25;;;8.82;;
42770;SDS011;28426;42.872;25.314;2022-11-20T12:21:03;11.52;;;7.72;;
42770;SDS011;28426;42.872;25.314;2022-11-20T12:23:45;10.82;;;7.97;;
42770;SDS011;28426;42.872;25.314;2022-11-20T12:29:13;9.88;;;7.22;;
42770;SDS011;28426;42.872;25.314;2022-11-20T12:32:01;12.27;;;8.25;;
42770;SDS011;28426;42.872;25.314;2022-11-20T12:34:52;12.25;;;8.20;;
42770;SDS011;28426;42.872;25.314;2022-11-20T12:37:38;12.15;;;8.18;;
42770;SDS011;28426;42.872;25.314;2022-11-20T12:40:27;14.85;;;8.20;;
42770;SDS011;28426;42.872;25.314;2022-11-20T12:43:10;14.75;;;8.43;;
42770;SDS011;28426;42.872;25.314;2022-11-20T12:46:08;12.88;;;8.85;;
42770;SDS011;28426;42.872;25.314;2022-11-20T12:51:58;13.10;;;9.25;;
42770;SDS011;28426;42.872;25.314;2022-11-20T12:55:03;14.23;;;9.65;;
42770;SDS011;28426;42.872;25.314;2022-11-20T12:57:54;13.77;;;10.38;;
42770;SDS011;28426;42.872;25.314;2022-11-20T13:00:34;15.43;;;10.75;;
42770;SDS011;28426;42.872;25.314;2022-11-20T13:03:24;17.33;;;11.60;;
42770;SDS011;28426;42.872;25.314;2022-11-20T13:08:49;15.73;;;10.65;;
42770;SDS011;28426;42.872;25.314;2022-11-20T13:11:24;21.05;;;15.27;;
42770;SDS011;28426;42.872;25.314;2022-11-20T13:14:05;15.32;;;9.95;;
42770;SDS011;28426;42.872;25.314;2022-11-20T13:16:48;16.55;;;9.77;;
42770;SDS011;28426;42.872;25.314;2022-11-20T13:19:30;19.50;;;10.52;;
42770;SDS011;28426;42.872;25.314;2022-11-20T13:22:01;14.23;;;10.13;;
42770;SDS011;28426;42.872;25.314;2022-11-20T13:24:32;15.98;;;10.60;;
42770;SDS011;28426;42.872;25.314;2022-11-20T13:27:03;15.38;;;9.88;;
42770;SDS011;28426;42.872;25.314;2022-11-20T13:30:01;15.82;;;9.68;;
42770;SDS011;28426;42.872;25.314;2022-11-20T13:32:53;16.15;;;10.65;;
42770;SDS011;28426;42.872;25.314;2022-11-20T13:35:28;14.38;;;9.80;;
42770;SDS011;28426;42.872;25.314;2022-11-20T13:38:04;14.18;;;9.85;;
42770;SDS011;28426;42.872;25.314;2022-11-20T13:40:37;15.30;;;9.88;;
42770;SDS011;28426;42.872;25.314;2022-11-20T13:43:26;15.20;;;9.70;;
42770;SDS011;28426;42.872;25.314;2022-11-20T13:46:04;16.92;;;11.27;;
42770;SDS011;28426;42.872;25.314;2022-11-20T13:48:41;23.88;;;14.27;;
42770;SDS011;28426;42.872;25.314;2022-11-20T13:51:15;23.20;;;15.63;;
42770;SDS011;28426;42.872;25.314;2022-11-20T13:57:09;20.40;;;14.20;;
42770;SDS011;28426;42.872;25.314;2022-11-20T13:59:55;20.40;;;14.02;;
42770;SDS011;28426;42.872;25.314;2022-11-20T14:02:36;31.27;;;20.35;;
42770;SDS011;28426;42.872;25.314;2022-11-20T14:05:15;40.13;;;22.20;;
42770;SDS011;28426;42.872;25.314;2022-11-20T14:07:50;35.15;;;22.75;;
42770;SDS011;28426;42.872;25.314;2022-11-20T14:10:23;33.45;;;19.17;;
42770;SDS011;28426;42.872;25.314;2022-11-20T14:12:58;27.20;;;18.40;;
42770;SDS011;28426;42.872;25.314;2022-11-20T14:15:39;22.52;;;16.20;;
42770;SDS011;28426;42.872;25.314;2022-11-20T14:18:12;27.83;;;16.60;;
42770;SDS011;28426;42.872;25.314;2022-11-20T14:20:46;29.60;;;18.05;;
42770;SDS011;28426;42.872;25.314;2022-11-20T14:23:23;25.08;;;16.75;;
42770;SDS011;28426;42.872;25.314;2022-11-20T14:25:56;23.23;;;15.68;;
42770;SDS011;28426;42.872;25.314;2022-11-20T14:28:27;23.80;;;15.48;;
42770;SDS011;28426;42.872;25.314;2022-11-20T14:30:59;23.95;;;15.38;;
42770;SDS011;28426;42.872;25.314;2022-11-20T14:33:30;20.40;;;13.13;;
42770;SDS011;28426;42.872;25.314;2022-11-20T14:36:05;18.15;;;12.45;;
42770;SDS011;28426;42.872;25.314;2022-11-20T14:38:46;18.42;;;12.88;;
42770;SDS011;28426;42.872;25.314;2022-11-20T14:41:18;17.10;;;12.00;;
42770;SDS011;28426;42.872;25.314;2022-11-20T14:43:51;20.63;;;14.95;;
42770;SDS011;28426;42.872;25.314;2022-11-20T14:46:26;20.80;;;14.00;;
42770;SDS011;28426;42.872;25.314;2022-11-20T14:49:00;20.58;;;13.82;;
42770;SDS011;28426;42.872;25.314;2022-11-20T14:51:36;18.98;;;13.40;;
42770;SDS011;28426;42.872;25.314;2022-11-20T14:54:09;21.05;;;15.00;;
42770;SDS011;28426;42.872;25.314;2022-11-20T14:56:40;21.55;;;15.18;;
42770;SDS011;28426;42.872;25.314;2022-11-20T14:59:11;20.10;;;14.88;;
42770;SDS011;28426;42.872;25.314;2022-11-20T15:01:54;19.88;;;13.88;;
42770;SDS011;28426;42.872;25.314;2022-11-20T15:04:26;20.38;;;14.85;;
42770;SDS011;28426;42.872;25.314;2022-11-20T15:07:00;22.20;;;15.15;;
42770;SDS011;28426;42.872;25.314;2022-11-20T15:09:30;26.70;;;18.05;;
42770;SDS011;28426;42.872;25.314;2022-11-20T15:12:01;24.25;;;16.60;;
42770;SDS011;28426;42.872;25.314;2022-11-20T15:14:33;21.45;;;15.82;;
42770;SDS011;28426;42.872;25.314;2022-11-20T15:17:07;21.73;;;15.00;;
42770;SDS011;28426;42.872;25.314;2022-11-20T15:19:41;28.10;;;19.77;;